Spruce Grove, Canada
Current Conditions -  °F | °C
As of 3:02 PM on Wednesday 28 Jan 2015 (Local Time) from CZVL Reporting Station
Few Clouds Few Clouds  
Wind Chill: 25°   Ceiling: Unl
Heat Index: 25°   Visibility: 9mi
Dew Point: 21°   Wind: 3mph
Humidity: 86%   Direction: 70°ENE
Pressure: 30.29"   Gusts: NA
Location:  53.54°N, 113.9°W
Report Text: CZVL 282202Z AUTO 07003KT 010V100 9SM FEW008 M04/M06 A3029 RMK SLP293
Loading
Personal Weather Stations






























Interactive Weather Map New forecast layout! Learn more

10-Day Weather Forecast

Advertisements
Track Severe Weather on mobile